Bexleyheath, United Kingdom
Current Conditions -  °F | °C
As of 12:50 PM on Friday 19 Dec 2014 (Local Time) from EGLC Reporting Station
Few Clouds Few Clouds  
Wind Chill: 50°   Ceiling: Unl
Heat Index: 50°   Visibility: 6mi
Dew Point: 34°   Wind: 18mph
Humidity: 54%   Direction: 280°W
Pressure: 30"   Gusts: NA
Location:  51.45°N, 0.14°E
Report Text: EGLC 191250Z 28016KT 9999 FEW042 10/01 Q1016
Loading
Personal Weather Stations






























Interactive Weather Map New forecast layout! Learn more

10-Day Weather Forecast

Advertisements
Track Severe Weather on mobile